• Join FlightAware (Why Join?)
  • Login
  • US Flag 
09:50AM EDT


 

Airport Tracker/Info


-or-


 

Live Flight TrackerFlight Track Log ✈ N354LQ ✈ 12-Feb-2014 ✈ KAFW - KMBS

Flight Track Log - Related Links

Times and Time Zones

All times are in EST time to prevent confusion due to time zone crossing. See the N354LQ flight status page for this flight to view local times or setup timezone preferences in your user account.

Time Position Orientation Groundspeed Altitude Reporting Facility
EST Latitude Longitude Course Direction KTS MPH feet Rate Location/Type
12:14PM 33.0000 -97.3167 348° North 154 177 1,900  Level Dallas / Fort Worth TRACON
12:15PM 33.0667 -97.3333 348° North 214 246 5,400 3,240 Climbing Dallas / Fort Worth TRACON
12:16PM 33.1333 -97.3333 360° North 258 297 8,800 3,180 Climbing Dallas / Fort Worth TRACON
12:18PM 33.2439 -97.1503 41° Northeast 306 352 16,000 3,120 Climbing Fort Worth Center
12:20PM 33.2919 -97.0722 54° Northeast 292 336 19,400 2,940 Climbing Fort Worth Center
12:21PM 33.3464 -96.9875 52° Northeast 299 344 22,100 1,740 Climbing Fort Worth Center
12:22PM 33.4039 -96.8969 53° Northeast 337 388 23,000 1,140 Climbing Fort Worth Center
12:23PM 33.4706 -96.8119 47° Northeast 380 437 24,500 1,740 Climbing Fort Worth Center
12:24PM 33.5539 -96.7453 34° Northeast 363 418 26,700 2,520 Climbing Fort Worth Center
12:25PM 33.6561 -96.6844 26° Northeast 347 399 29,800 2,340 Climbing Fort Worth Center
12:26PM 33.7378 -96.6325 28° Northeast 338 389 31,600 1,440 Climbing Fort Worth Center
12:27PM 33.8231 -96.5825 26° Northeast 341 392 32,900 1,200 Climbing Fort Worth Center
12:28PM 33.9128 -96.5247 28° Northeast 359 413 34,200 1,200 Climbing Fort Worth Center
12:29PM 34.0028 -96.4664 28° Northeast 366 421 35,400 1,200 Climbing Fort Worth Center
12:30PM 34.1097 -96.3939 29° Northeast 368 423 36,700 1,020 Climbing Fort Worth Center
12:31PM 34.1914 -96.3147 39° Northeast 380 437 37,600 720 Climbing Fort Worth Center
12:32PM 34.2822 -96.2497 31° Northeast 381 438 38,200 600 Climbing Fort Worth Center
12:33PM 34.3692 -96.1703 37° Northeast 390 449 38,900 660 Climbing Fort Worth Center
12:34PM 34.4636 -96.0994 32° Northeast 399 459 39,600 660 Climbing Fort Worth Center
12:35PM 34.5556 -96.0294 32° Northeast 394 453 40,300 480 Climbing Fort Worth Center
12:36PM 34.6617 -95.9353 36° Northeast 396 456 40,700 360 Climbing Fort Worth Center
12:37PM 34.7533 -95.8606 34° Northeast 397 457 41,100 120 Climbing Fort Worth Center
12:38PM 34.8453 -95.7897 32° Northeast 394 453 41,000 -60 Descending Fort Worth Center
12:39PM 34.9311 -95.7017 40° Northeast 414 476 41,000  Level Fort Worth Center
12:40PM 35.0122 -95.5994 46° Northeast 419 482 41,000  Level Fort Worth Center
12:41PM 35.1094 -95.4725 47° Northeast 423 487 41,100  Climbing Fort Worth Center
12:42PM 35.1969 -95.3822 40° Northeast 415 478 41,000 -60 Descending Fort Worth Center
12:43PM 35.2797 -95.2839 44° Northeast 413 475 41,000  Level Memphis Center
12:44PM 35.3653 -95.1883 42° Northeast 419 482 41,000  Level Memphis Center
12:45PM 35.4506 -95.0933 42° Northeast 413 475 41,100  Climbing Memphis Center
12:46PM 35.5375 -95.0000 41° Northeast 416 479 41,000 -60 Descending Memphis Center
12:47PM 35.6386 -94.8803 44° Northeast 418 481 41,000  Level Kansas City Center
12:48PM 35.7069 -94.8058 41° Northeast 417 480 41,000  Level Memphis Center
12:49PM 35.7900 -94.7067 44° Northeast 416 479 41,000  Level Memphis Center
12:50PM 35.8761 -94.6089 43° Northeast 420 483 41,000  Level Memphis Center
12:51PM 35.9594 -94.5106 44° Northeast 418 481 41,000  Level Memphis Center
12:52PM 36.0625 -94.3894 44° Northeast 423 487 41,000  Level Memphis Center
12:53PM 36.1494 -94.2883 43° Northeast 427 491 41,000  Level Memphis Center
12:54PM 36.2350 -94.1883 43° Northeast 425 489 41,000  Level Memphis Center
12:55PM 36.3214 -94.0869 43° Northeast 427 491 41,000  Level Memphis Center
12:57PM 36.4061 -93.9831 45° Northeast 428 493 41,100  Climbing Memphis Center
12:58PM 36.4936 -93.8822 43° Northeast 428 493 41,000 -60 Descending Memphis Center
12:59PM 36.5803 -93.7786 44° Northeast 431 496 41,000  Level Memphis Center
01:00PM 36.7019 -93.6303 44° Northeast 433 498 41,000  Level Kansas City Center
01:01PM 36.7906 -93.5269 43° Northeast 434 499 41,000  Level Kansas City Center
01:02PM 36.8828 -93.4136 44° Northeast 434 499 41,000  Level Kansas City Center
01:03PM 36.9706 -93.3075 44° Northeast 437 503 41,000  Level Kansas City Center
01:04PM 37.0581 -93.2033 44° Northeast 431 496 41,100  Climbing Kansas City Center
01:05PM 37.1444 -93.0967 45° Northeast 434 499 41,000 -60 Descending Kansas City Center
01:06PM 37.2319 -92.9922 44° Northeast 433 498 41,000  Level Kansas City Center
01:07PM 37.3181 -92.8831 45° Northeast 437 503 41,000  Level Kansas City Center
01:08PM 37.4231 -92.7542 44° Northeast 439 505 41,000  Level Kansas City Center
01:09PM 37.5103 -92.6456 45° Northeast 440 506 41,000  Level Kansas City Center
01:10PM 37.5961 -92.5372 45° Northeast 438 504 41,000  Level Kansas City Center
01:11PM 37.6792 -92.4364 44° Northeast 440 506 41,000  Level Kansas City Center
01:12PM 37.7653 -92.3258 45° Northeast 443 510 41,000  Level Kansas City Center
01:13PM 37.8533 -92.2181 44° Northeast 447 514 41,000  Level Kansas City Center
01:14PM 37.9567 -92.0825 46° Northeast 449 517 41,000  Level Kansas City Center
01:15PM 38.0461 -91.9767 43° Northeast 442 509 41,000  Level Kansas City Center
01:16PM 38.1325 -91.8653 45° Northeast 441 507 41,100  Climbing Kansas City Center
01:17PM 38.2208 -91.7544 45° Northeast 443 510 41,000 -60 Descending Kansas City Center
01:18PM 38.3094 -91.6428 45° Northeast 445 512 41,000  Level Kansas City Center
01:20PM 38.4111 -91.5050 47° Northeast 445 512 41,000  Level Kansas City Center
01:21PM 38.4992 -91.3942 45° Northeast 444 511 41,100  Climbing Kansas City Center
01:22PM 38.5869 -91.2803 45° Northeast 454 522 41,000 -60 Descending Kansas City Center
01:23PM 38.6764 -91.1675 45° Northeast 454 522 41,000  Level Kansas City Center
01:24PM 38.7639 -91.0517 46° Northeast 452 520 41,000  Level Kansas City Center
01:25PM 38.8528 -90.9372 45° Northeast 451 519 41,000  Level Kansas City Center
01:26PM 38.9417 -90.8194 46° Northeast 453 521 41,000  Level Kansas City Center
01:27PM 39.0300 -90.7011 46° Northeast 454 522 41,000  Level Kansas City Center
01:28PM 39.1392 -90.5608 45° Northeast 458 527 41,100  Climbing Kansas City Center
01:29PM 39.2269 -90.4408 47° Northeast 457 526 41,000 -60 Descending Kansas City Center
01:30PM 39.3172 -90.3236 45° Northeast 458 527 41,000  Level Kansas City Center
01:31PM 39.4053 -90.2036 46° Northeast 458 527 41,000  Level Kansas City Center
01:32PM 39.4944 -90.0847 46° Northeast 460 529 41,000  Level Kansas City Center
01:33PM 39.5839 -89.9642 46° Northeast 461 531 41,000  Level Kansas City Center
01:34PM 39.6722 -89.8442 46° Northeast 461 531 41,000  Level Kansas City Center
01:35PM 39.7789 -89.6997 46° Northeast 461 531 41,000  Level Kansas City Center
01:36PM 39.8681 -89.5794 46° Northeast 462 532 41,100  Climbing Kansas City Center
01:37PM 39.9561 -89.4575 47° Northeast 463 533 41,000 -60 Descending Kansas City Center
01:38PM 40.0444 -89.3358 46° Northeast 464 534 41,000  Level Kansas City Center
01:39PM 40.1331 -89.2128 47° Northeast 466 536 41,000  Level Kansas City Center
01:40PM 40.2031 -89.1158 47° Northeast 464 534 41,000  Level Chicago Center
01:41PM 40.2900 -88.9914 47° Northeast 464 534 41,000  Level Chicago Center
01:42PM 40.3981 -88.8419 46° Northeast 469 540 41,000  Level Chicago Center
01:43PM 40.4817 -88.7219 47° Northeast 470 541 41,100  Climbing Chicago Center
01:44PM 40.5719 -88.5967 46° Northeast 472 543 41,000 -60 Descending Chicago Center
01:45PM 40.6611 -88.4700 47° Northeast 473 544 41,000  Level Chicago Center
01:46PM 40.7683 -88.3153 48° Northeast 477 549 41,000  Level Chicago Center
01:47PM 40.8594 -88.1906 46° Northeast 477 549 41,000  Level Chicago Center
01:48PM 40.9464 -88.0586 49° Northeast 478 550 41,000  Level Chicago Center
01:49PM 41.0372 -87.9336 46° Northeast 476 548 41,000  Level Chicago Center
01:50PM 41.1253 -87.8039 48° Northeast 478 550 41,000  Level Chicago Center
01:51PM 41.2150 -87.6772 47° Northeast 477 549 41,000  Level Chicago Center
01:52PM 41.3206 -87.5208 48° Northeast 479 551 41,000  Level Chicago Center
01:53PM 41.4086 -87.3900 48° Northeast 479 551 41,000 -300 Level Chicago Center
01:55PM 41.5872 -87.1253 47° Northeast 484 557 40,200 -600 Descending Chicago Center
01:56PM 41.6833 -87.0006 44° Northeast 483 556 39,200 -1,200 Descending Chicago Center
01:57PM 41.7894 -86.8828 40° Northeast 495 570 37,800 -1,380 Descending Chicago Center
01:58PM 41.8964 -86.7092 50° Northeast 506 582 36,400 -1,320 Descending Chicago Center
01:59PM 41.9833 -86.5814 48° Northeast 510 587 35,200 -1,260 Descending Chicago Center
02:00PM 42.0756 -86.4347 50° Northeast 514 592 33,800 -1,440 Descending Chicago Center
02:02PM 42.1700 -86.2919 48° Northeast 509 586 32,300 -1,620 Descending Chicago Center
02:03PM 42.2611 -86.1444 50° Northeast 511 588 30,500 -1,740 Descending Chicago Center
02:04PM 42.3661 -85.9850 48° Northeast 509 586 28,800 -1,560 Descending Chicago Center
02:05PM 42.4539 -85.8433 50° Northeast 499 574 27,400 -1,500 Descending Chicago Center
02:06PM 42.5392 -85.7039 50° Northeast 489 563 25,800 -1,680 Descending Chicago Center
02:07PM 42.6256 -85.5700 49° Northeast 481 554 24,000 -1,980 Descending Chicago Center
02:08PM 42.7233 -85.4081 51° Northeast 468 539 21,800 -2,220 Descending Chicago Center
02:09PM 42.8078 -85.2783 48° Northeast 463 533 19,500 -2,160 Descending Chicago Center
02:10PM 42.8858 -85.1486 51° Northeast 451 519 17,400 -2,040 Descending Chicago Center
02:11PM 42.9625 -85.0258 50° Northeast 435 501 15,400 -1,440 Descending Chicago Center
02:12PM 43.0322 -84.9100 51° Northeast 410 472 14,500 -1,020 Descending Chicago Center
02:13PM 43.0992 -84.8006 50° Northeast 387 445 13,400 -1,200 Descending Chicago Center
02:14PM 43.1758 -84.6722 51° Northeast 370 426 12,100 -1,080 Descending Chicago Center
02:15PM 43.2386 -84.5731 49° Northeast 353 406 11,200 -1,080 Descending Chicago Center
02:16PM 43.2944 -84.4792 51° Northeast 330 380 10,000 -1,260 Descending Chicago Center
02:17PM 43.3500 -84.3956 48° Northeast 305 351 8,700 -1,680 Descending Chicago Center
02:18PM 43.4128 -84.3233 40° Northeast 298 343 6,600 -2,160 Descending Chicago Center
02:19PM 43.5081 -84.2108 41° Northeast 278 320 3,200 -1,500 Descending Cleveland Center
02:20PM 43.5531 -84.1542 42° Northeast 202 232 2,900 -300 Descending Cleveland Center
02:22PM 43.5950 -84.1008 43° Northeast 194 223 2,600 -480 Descending Cleveland Center
02:23PM 43.5983 -84.0422 85° East 162 186 2,000 -540 Descending Cleveland Center
02:24PM 43.5664 -84.0336 169° South 133 153 1,500 -660 Descending Cleveland Center
02:25PM 43.5411 -84.0689 225° Southwest 124 143 700 -780 Descending Cleveland Center